sensor_id;sensor_type;location;lat;lon;timestamp;P1;durP1;ratioP1;P2;durP2;ratioP2
8564;SDS011;4320;51.498;6.556;2023-04-09T00:01:10;44.03;;;26.63;;
8564;SDS011;4320;51.498;6.556;2023-04-09T00:03:36;43.33;;;25.73;;
8564;SDS011;4320;51.498;6.556;2023-04-09T00:06:03;42.03;;;25.75;;
8564;SDS011;4320;51.498;6.556;2023-04-09T00:08:29;43.55;;;24.95;;
8564;SDS011;4320;51.498;6.556;2023-04-09T00:10:58;46.15;;;26.50;;
8564;SDS011;4320;51.498;6.556;2023-04-09T00:13:23;41.03;;;24.20;;
8564;SDS011;4320;51.498;6.556;2023-04-09T00:15:49;42.42;;;25.08;;
8564;SDS011;4320;51.498;6.556;2023-04-09T00:18:15;41.22;;;24.48;;
8564;SDS011;4320;51.498;6.556;2023-04-09T00:20:42;37.20;;;24.30;;
8564;SDS011;4320;51.498;6.556;2023-04-09T00:23:08;42.55;;;25.75;;
8564;SDS011;4320;51.498;6.556;2023-04-09T00:25:34;50.13;;;31.65;;
8564;SDS011;4320;51.498;6.556;2023-04-09T00:28:00;62.08;;;36.65;;
8564;SDS011;4320;51.498;6.556;2023-04-09T00:30:29;62.88;;;35.72;;
8564;SDS011;4320;51.498;6.556;2023-04-09T00:32:55;71.05;;;38.85;;
8564;SDS011;4320;51.498;6.556;2023-04-09T00:35:21;62.17;;;36.30;;
8564;SDS011;4320;51.498;6.556;2023-04-09T00:37:47;59.72;;;34.03;;
8564;SDS011;4320;51.498;6.556;2023-04-09T00:40:13;55.25;;;31.52;;
8564;SDS011;4320;51.498;6.556;2023-04-09T00:42:38;60.05;;;31.15;;
8564;SDS011;4320;51.498;6.556;2023-04-09T00:45:05;45.58;;;28.10;;
8564;SDS011;4320;51.498;6.556;2023-04-09T00:47:31;43.97;;;26.23;;
8564;SDS011;4320;51.498;6.556;2023-04-09T00:49:59;40.45;;;25.35;;
8564;SDS011;4320;51.498;6.556;2023-04-09T00:52:26;40.28;;;24.27;;
8564;SDS011;4320;51.498;6.556;2023-04-09T00:54:54;40.03;;;23.90;;
8564;SDS011;4320;51.498;6.556;2023-04-09T00:57:20;39.83;;;24.20;;
8564;SDS011;4320;51.498;6.556;2023-04-09T00:59:46;39.72;;;24.20;;
8564;SDS011;4320;51.498;6.556;2023-04-09T01:02:12;43.45;;;26.13;;
8564;SDS011;4320;51.498;6.556;2023-04-09T01:04:38;38.22;;;25.00;;
8564;SDS011;4320;51.498;6.556;2023-04-09T01:07:19;40.47;;;24.92;;
8564;SDS011;4320;51.498;6.556;2023-04-09T01:12:51;38.97;;;24.10;;
8564;SDS011;4320;51.498;6.556;2023-04-09T01:15:28;39.65;;;24.80;;
8564;SDS011;4320;51.498;6.556;2023-04-09T01:18:05;35.55;;;22.90;;
8564;SDS011;4320;51.498;6.556;2023-04-09T01:20:39;36.67;;;23.23;;
8564;SDS011;4320;51.498;6.556;2023-04-09T01:26:12;39.95;;;22.42;;
8564;SDS011;4320;51.498;6.556;2023-04-09T01:28:46;34.40;;;21.88;;
8564;SDS011;4320;51.498;6.556;2023-04-09T01:31:16;34.72;;;22.08;;
8564;SDS011;4320;51.498;6.556;2023-04-09T01:33:45;37.45;;;22.42;;
8564;SDS011;4320;51.498;6.556;2023-04-09T01:36:11;37.05;;;21.83;;
8564;SDS011;4320;51.498;6.556;2023-04-09T01:38:41;36.67;;;22.60;;
8564;SDS011;4320;51.498;6.556;2023-04-09T01:41:08;36.75;;;21.27;;
8564;SDS011;4320;51.498;6.556;2023-04-09T01:43:42;34.47;;;21.55;;
8564;SDS011;4320;51.498;6.556;2023-04-09T01:46:09;36.78;;;21.13;;
8564;SDS011;4320;51.498;6.556;2023-04-09T01:48:35;35.10;;;21.67;;
8564;SDS011;4320;51.498;6.556;2023-04-09T01:51:02;34.67;;;19.98;;
8564;SDS011;4320;51.498;6.556;2023-04-09T01:53:28;36.92;;;22.17;;
8564;SDS011;4320;51.498;6.556;2023-04-09T01:55:55;35.50;;;20.42;;
8564;SDS011;4320;51.498;6.556;2023-04-09T01:58:23;38.17;;;22.25;;
8564;SDS011;4320;51.498;6.556;2023-04-09T02:00:49;37.90;;;21.17;;
8564;SDS011;4320;51.498;6.556;2023-04-09T02:03:24;37.38;;;21.05;;
8564;SDS011;4320;51.498;6.556;2023-04-09T02:05:54;36.50;;;22.10;;
8564;SDS011;4320;51.498;6.556;2023-04-09T02:08:26;35.47;;;20.15;;
8564;SDS011;4320;51.498;6.556;2023-04-09T02:10:53;40.88;;;23.50;;
8564;SDS011;4320;51.498;6.556;2023-04-09T02:13:22;37.20;;;21.75;;
8564;SDS011;4320;51.498;6.556;2023-04-09T02:15:51;34.97;;;19.98;;
8564;SDS011;4320;51.498;6.556;2023-04-09T02:18:22;38.22;;;21.48;;
8564;SDS011;4320;51.498;6.556;2023-04-09T02:20:57;36.03;;;21.20;;
8564;SDS011;4320;51.498;6.556;2023-04-09T02:23:24;35.00;;;20.85;;
8564;SDS011;4320;51.498;6.556;2023-04-09T02:25:51;32.67;;;19.27;;
8564;SDS011;4320;51.498;6.556;2023-04-09T02:28:17;38.40;;;21.95;;
8564;SDS011;4320;51.498;6.556;2023-04-09T02:30:43;35.75;;;21.42;;
8564;SDS011;4320;51.498;6.556;2023-04-09T02:33:09;39.38;;;22.05;;
8564;SDS011;4320;51.498;6.556;2023-04-09T02:35:34;42.20;;;22.90;;
8564;SDS011;4320;51.498;6.556;2023-04-09T02:38:00;36.05;;;20.88;;
8564;SDS011;4320;51.498;6.556;2023-04-09T02:40:26;35.65;;;21.20;;
8564;SDS011;4320;51.498;6.556;2023-04-09T02:42:52;39.30;;;23.13;;
8564;SDS011;4320;51.498;6.556;2023-04-09T02:45:17;36.65;;;21.10;;
8564;SDS011;4320;51.498;6.556;2023-04-09T02:47:43;37.08;;;22.63;;
8564;SDS011;4320;51.498;6.556;2023-04-09T02:50:09;39.38;;;22.67;;
8564;SDS011;4320;51.498;6.556;2023-04-09T02:52:35;39.15;;;21.75;;
8564;SDS011;4320;51.498;6.556;2023-04-09T02:55:00;35.10;;;21.08;;
8564;SDS011;4320;51.498;6.556;2023-04-09T02:57:26;38.75;;;22.00;;
8564;SDS011;4320;51.498;6.556;2023-04-09T02:59:51;38.65;;;22.17;;
8564;SDS011;4320;51.498;6.556;2023-04-09T03:02:17;44.85;;;23.60;;
8564;SDS011;4320;51.498;6.556;2023-04-09T03:04:43;39.03;;;22.95;;
8564;SDS011;4320;51.498;6.556;2023-04-09T03:07:09;37.25;;;22.00;;
8564;SDS011;4320;51.498;6.556;2023-04-09T03:09:35;40.05;;;23.00;;
8564;SDS011;4320;51.498;6.556;2023-04-09T03:12:01;37.53;;;21.90;;
8564;SDS011;4320;51.498;6.556;2023-04-09T03:14:27;35.72;;;22.05;;
8564;SDS011;4320;51.498;6.556;2023-04-09T03:16:52;43.63;;;23.85;;
8564;SDS011;4320;51.498;6.556;2023-04-09T03:19:18;38.00;;;22.27;;
8564;SDS011;4320;51.498;6.556;2023-04-09T03:21:43;43.13;;;22.80;;
8564;SDS011;4320;51.498;6.556;2023-04-09T03:24:10;36.75;;;22.35;;
8564;SDS011;4320;51.498;6.556;2023-04-09T03:26:36;36.90;;;21.65;;
8564;SDS011;4320;51.498;6.556;2023-04-09T03:29:02;42.35;;;23.48;;
8564;SDS011;4320;51.498;6.556;2023-04-09T03:31:29;42.92;;;22.20;;
8564;SDS011;4320;51.498;6.556;2023-04-09T03:33:55;39.05;;;22.35;;
8564;SDS011;4320;51.498;6.556;2023-04-09T03:36:20;37.80;;;22.48;;
8564;SDS011;4320;51.498;6.556;2023-04-09T03:38:46;40.00;;;22.77;;
8564;SDS011;4320;51.498;6.556;2023-04-09T03:41:12;41.63;;;22.92;;
8564;SDS011;4320;51.498;6.556;2023-04-09T03:43:37;36.78;;;22.58;;
8564;SDS011;4320;51.498;6.556;2023-04-09T03:46:15;42.47;;;23.38;;
8564;SDS011;4320;51.498;6.556;2023-04-09T03:48:41;37.38;;;22.88;;
8564;SDS011;4320;51.498;6.556;2023-04-09T03:51:11;36.50;;;21.88;;
8564;SDS011;4320;51.498;6.556;2023-04-09T03:53:38;39.33;;;22.60;;
8564;SDS011;4320;51.498;6.556;2023-04-09T03:56:04;38.15;;;22.33;;
8564;SDS011;4320;51.498;6.556;2023-04-09T03:58:30;36.75;;;21.25;;
8564;SDS011;4320;51.498;6.556;2023-04-09T04:00:56;44.08;;;23.48;;
8564;SDS011;4320;51.498;6.556;2023-04-09T04:03:22;39.92;;;23.45;;
8564;SDS011;4320;51.498;6.556;2023-04-09T04:05:47;42.03;;;21.55;;
8564;SDS011;4320;51.498;6.556;2023-04-09T04:08:13;39.70;;;21.47;;
8564;SDS011;4320;51.498;6.556;2023-04-09T04:10:38;40.35;;;22.08;;
8564;SDS011;4320;51.498;6.556;2023-04-09T04:13:07;38.30;;;22.17;;
8564;SDS011;4320;51.498;6.556;2023-04-09T04:15:35;39.25;;;22.52;;
8564;SDS011;4320;51.498;6.556;2023-04-09T04:18:05;39.92;;;22.23;;
8564;SDS011;4320;51.498;6.556;2023-04-09T04:20:33;37.80;;;21.30;;
8564;SDS011;4320;51.498;6.556;2023-04-09T04:22:59;40.00;;;21.98;;
8564;SDS011;4320;51.498;6.556;2023-04-09T04:25:25;42.15;;;22.33;;
8564;SDS011;4320;51.498;6.556;2023-04-09T04:27:50;39.58;;;22.35;;
8564;SDS011;4320;51.498;6.556;2023-04-09T04:30:16;40.60;;;23.80;;
8564;SDS011;4320;51.498;6.556;2023-04-09T04:32:42;38.35;;;21.38;;
8564;SDS011;4320;51.498;6.556;2023-04-09T04:35:08;44.65;;;23.80;;
8564;SDS011;4320;51.498;6.556;2023-04-09T04:37:33;39.95;;;23.13;;
8564;SDS011;4320;51.498;6.556;2023-04-09T04:40:02;42.97;;;24.13;;
8564;SDS011;4320;51.498;6.556;2023-04-09T04:42:29;41.35;;;22.98;;
8564;SDS011;4320;51.498;6.556;2023-04-09T04:44:55;45.03;;;24.05;;
8564;SDS011;4320;51.498;6.556;2023-04-09T04:47:20;44.83;;;23.85;;
8564;SDS011;4320;51.498;6.556;2023-04-09T04:49:46;42.05;;;23.95;;
8564;SDS011;4320;51.498;6.556;2023-04-09T04:52:12;41.15;;;23.38;;
8564;SDS011;4320;51.498;6.556;2023-04-09T04:54:37;46.63;;;25.53;;
8564;SDS011;4320;51.498;6.556;2023-04-09T04:57:04;44.25;;;24.13;;
8564;SDS011;4320;51.498;6.556;2023-04-09T04:59:30;46.78;;;25.02;;
8564;SDS011;4320;51.498;6.556;2023-04-09T05:01:55;48.23;;;24.67;;
8564;SDS011;4320;51.498;6.556;2023-04-09T05:04:21;43.67;;;23.30;;
8564;SDS011;4320;51.498;6.556;2023-04-09T05:06:47;46.47;;;24.80;;
8564;SDS011;4320;51.498;6.556;2023-04-09T05:09:12;41.17;;;23.77;;
8564;SDS011;4320;51.498;6.556;2023-04-09T05:11:38;46.33;;;24.37;;
8564;SDS011;4320;51.498;6.556;2023-04-09T05:14:03;46.38;;;24.63;;
8564;SDS011;4320;51.498;6.556;2023-04-09T05:16:30;46.85;;;24.63;;
8564;SDS011;4320;51.498;6.556;2023-04-09T05:18:55;46.25;;;26.20;;
8564;SDS011;4320;51.498;6.556;2023-04-09T05:21:21;43.53;;;24.27;;
8564;SDS011;4320;51.498;6.556;2023-04-09T05:23:47;45.78;;;25.15;;
8564;SDS011;4320;51.498;6.556;2023-04-09T05:26:12;48.85;;;25.55;;
8564;SDS011;4320;51.498;6.556;2023-04-09T05:28:38;43.75;;;24.77;;
8564;SDS011;4320;51.498;6.556;2023-04-09T05:31:03;43.80;;;24.90;;
8564;SDS011;4320;51.498;6.556;2023-04-09T05:33:31;40.97;;;22.52;;
8564;SDS011;4320;51.498;6.556;2023-04-09T05:36:01;39.75;;;23.27;;
8564;SDS011;4320;51.498;6.556;2023-04-09T05:38:27;42.58;;;24.25;;
8564;SDS011;4320;51.498;6.556;2023-04-09T05:40:52;43.28;;;23.58;;
8564;SDS011;4320;51.498;6.556;2023-04-09T05:43:18;39.85;;;24.20;;
8564;SDS011;4320;51.498;6.556;2023-04-09T05:45:44;39.85;;;22.67;;
8564;SDS011;4320;51.498;6.556;2023-04-09T05:48:10;42.10;;;23.05;;
8564;SDS011;4320;51.498;6.556;2023-04-09T05:50:35;44.70;;;23.25;;
8564;SDS011;4320;51.498;6.556;2023-04-09T05:53:01;38.58;;;22.33;;
8564;SDS011;4320;51.498;6.556;2023-04-09T05:55:27;42.25;;;25.10;;
8564;SDS011;4320;51.498;6.556;2023-04-09T05:57:54;37.80;;;23.05;;
8564;SDS011;4320;51.498;6.556;2023-04-09T06:00:21;40.58;;;22.42;;
8564;SDS011;4320;51.498;6.556;2023-04-09T06:02:46;43.33;;;22.63;;
8564;SDS011;4320;51.498;6.556;2023-04-09T06:05:12;43.05;;;24.20;;
8564;SDS011;4320;51.498;6.556;2023-04-09T06:07:37;43.42;;;24.27;;
8564;SDS011;4320;51.498;6.556;2023-04-09T06:10:03;43.88;;;24.20;;
8564;SDS011;4320;51.498;6.556;2023-04-09T06:12:29;41.03;;;24.13;;
8564;SDS011;4320;51.498;6.556;2023-04-09T06:14:55;43.80;;;23.00;;
8564;SDS011;4320;51.498;6.556;2023-04-09T06:17:20;37.90;;;22.98;;
8564;SDS011;4320;51.498;6.556;2023-04-09T06:19:46;43.72;;;24.80;;
8564;SDS011;4320;51.498;6.556;2023-04-09T06:22:11;39.15;;;23.80;;
8564;SDS011;4320;51.498;6.556;2023-04-09T06:24:37;39.10;;;23.67;;
8564;SDS011;4320;51.498;6.556;2023-04-09T06:27:03;39.53;;;22.23;;
8564;SDS011;4320;51.498;6.556;2023-04-09T06:29:28;39.15;;;23.05;;
8564;SDS011;4320;51.498;6.556;2023-04-09T06:31:54;43.33;;;23.40;;
8564;SDS011;4320;51.498;6.556;2023-04-09T06:34:19;44.72;;;23.42;;
8564;SDS011;4320;51.498;6.556;2023-04-09T06:36:45;40.67;;;23.58;;
8564;SDS011;4320;51.498;6.556;2023-04-09T06:39:11;51.30;;;31.40;;
8564;SDS011;4320;51.498;6.556;2023-04-09T06:41:36;42.72;;;25.08;;
8564;SDS011;4320;51.498;6.556;2023-04-09T06:44:02;36.88;;;23.65;;
8564;SDS011;4320;51.498;6.556;2023-04-09T06:46:28;37.30;;;24.38;;
8564;SDS011;4320;51.498;6.556;2023-04-09T06:48:53;39.25;;;23.42;;
8564;SDS011;4320;51.498;6.556;2023-04-09T06:51:19;43.70;;;29.42;;
8564;SDS011;4320;51.498;6.556;2023-04-09T06:53:45;40.70;;;24.05;;
8564;SDS011;4320;51.498;6.556;2023-04-09T06:56:12;36.30;;;22.65;;
8564;SDS011;4320;51.498;6.556;2023-04-09T06:58:37;31.58;;;21.25;;
8564;SDS011;4320;51.498;6.556;2023-04-09T07:01:03;32.25;;;21.27;;
8564;SDS011;4320;51.498;6.556;2023-04-09T07:03:29;33.20;;;21.55;;
8564;SDS011;4320;51.498;6.556;2023-04-09T07:05:55;30.70;;;21.65;;
8564;SDS011;4320;51.498;6.556;2023-04-09T07:08:21;33.33;;;21.88;;
8564;SDS011;4320;51.498;6.556;2023-04-09T07:10:47;29.88;;;20.80;;
8564;SDS011;4320;51.498;6.556;2023-04-09T07:13:13;32.92;;;21.55;;
8564;SDS011;4320;51.498;6.556;2023-04-09T07:15:39;30.98;;;21.23;;
8564;SDS011;4320;51.498;6.556;2023-04-09T07:18:04;32.25;;;20.65;;
8564;SDS011;4320;51.498;6.556;2023-04-09T07:20:30;28.73;;;20.65;;
8564;SDS011;4320;51.498;6.556;2023-04-09T07:22:56;30.58;;;21.23;;
8564;SDS011;4320;51.498;6.556;2023-04-09T07:25:21;32.83;;;20.35;;
8564;SDS011;4320;51.498;6.556;2023-04-09T07:27:47;31.83;;;21.20;;
8564;SDS011;4320;51.498;6.556;2023-04-09T07:30:13;29.33;;;19.80;;
8564;SDS011;4320;51.498;6.556;2023-04-09T07:32:39;29.55;;;18.67;;
8564;SDS011;4320;51.498;6.556;2023-04-09T07:35:06;26.65;;;19.23;;
8564;SDS011;4320;51.498;6.556;2023-04-09T07:37:33;28.80;;;19.48;;
8564;SDS011;4320;51.498;6.556;2023-04-09T07:39:59;27.25;;;19.83;;
8564;SDS011;4320;51.498;6.556;2023-04-09T07:42:25;27.25;;;18.90;;
8564;SDS011;4320;51.498;6.556;2023-04-09T07:44:52;25.35;;;18.92;;
8564;SDS011;4320;51.498;6.556;2023-04-09T07:47:17;24.55;;;18.33;;
8564;SDS011;4320;51.498;6.556;2023-04-09T07:49:43;24.85;;;16.95;;
8564;SDS011;4320;51.498;6.556;2023-04-09T07:52:09;19.75;;;15.18;;
8564;SDS011;4320;51.498;6.556;2023-04-09T07:54:34;18.48;;;13.70;;
8564;SDS011;4320;51.498;6.556;2023-04-09T07:57:00;17.92;;;13.68;;
8564;SDS011;4320;51.498;6.556;2023-04-09T07:59:26;19.10;;;14.85;;
8564;SDS011;4320;51.498;6.556;2023-04-09T08:01:53;19.48;;;13.75;;
8564;SDS011;4320;51.498;6.556;2023-04-09T08:04:19;18.27;;;14.63;;
8564;SDS011;4320;51.498;6.556;2023-04-09T08:06:45;17.98;;;13.38;;
8564;SDS011;4320;51.498;6.556;2023-04-09T08:09:14;18.08;;;13.88;;
8564;SDS011;4320;51.498;6.556;2023-04-09T08:11:43;17.92;;;13.95;;
8564;SDS011;4320;51.498;6.556;2023-04-09T08:14:10;18.38;;;13.57;;
8564;SDS011;4320;51.498;6.556;2023-04-09T08:16:39;17.05;;;13.73;;
8564;SDS011;4320;51.498;6.556;2023-04-09T08:19:09;17.15;;;12.77;;
8564;SDS011;4320;51.498;6.556;2023-04-09T08:21:36;16.55;;;13.15;;
8564;SDS011;4320;51.498;6.556;2023-04-09T08:24:03;15.63;;;11.90;;
8564;SDS011;4320;51.498;6.556;2023-04-09T08:26:29;13.73;;;11.23;;
8564;SDS011;4320;51.498;6.556;2023-04-09T08:28:55;14.15;;;11.13;;
8564;SDS011;4320;51.498;6.556;2023-04-09T08:31:21;14.70;;;12.00;;
8564;SDS011;4320;51.498;6.556;2023-04-09T08:33:47;13.98;;;11.00;;
8564;SDS011;4320;51.498;6.556;2023-04-09T08:36:13;14.20;;;10.50;;
8564;SDS011;4320;51.498;6.556;2023-04-09T08:38:38;15.05;;;11.20;;
8564;SDS011;4320;51.498;6.556;2023-04-09T08:41:04;16.45;;;11.65;;
8564;SDS011;4320;51.498;6.556;2023-04-09T08:43:31;15.43;;;12.13;;
8564;SDS011;4320;51.498;6.556;2023-04-09T08:45:58;15.85;;;11.32;;
8564;SDS011;4320;51.498;6.556;2023-04-09T08:48:24;15.40;;;10.65;;
8564;SDS011;4320;51.498;6.556;2023-04-09T08:50:50;12.98;;;9.45;;
8564;SDS011;4320;51.498;6.556;2023-04-09T08:53:16;15.13;;;10.90;;
8564;SDS011;4320;51.498;6.556;2023-04-09T08:55:46;13.23;;;9.25;;
8564;SDS011;4320;51.498;6.556;2023-04-09T08:58:12;16.63;;;10.48;;
8564;SDS011;4320;51.498;6.556;2023-04-09T09:00:37;11.93;;;8.82;;
8564;SDS011;4320;51.498;6.556;2023-04-09T09:03:07;10.90;;;8.48;;
8564;SDS011;4320;51.498;6.556;2023-04-09T09:05:39;11.57;;;8.88;;
8564;SDS011;4320;51.498;6.556;2023-04-09T09:08:09;12.15;;;8.50;;
8564;SDS011;4320;51.498;6.556;2023-04-09T09:10:39;12.50;;;8.07;;
8564;SDS011;4320;51.498;6.556;2023-04-09T09:13:25;11.10;;;7.55;;
8564;SDS011;4320;51.498;6.556;2023-04-09T09:18:41;9.02;;;7.25;;
8564;SDS011;4320;51.498;6.556;2023-04-09T09:21:14;9.85;;;7.93;;
8564;SDS011;4320;51.498;6.556;2023-04-09T09:23:41;14.23;;;8.20;;
8564;SDS011;4320;51.498;6.556;2023-04-09T09:26:14;11.35;;;8.43;;
8564;SDS011;4320;51.498;6.556;2023-04-09T09:28:45;10.15;;;8.02;;
8564;SDS011;4320;51.498;6.556;2023-04-09T09:31:12;11.75;;;8.10;;
8564;SDS011;4320;51.498;6.556;2023-04-09T09:33:39;12.70;;;8.77;;
8564;SDS011;4320;51.498;6.556;2023-04-09T09:36:04;12.55;;;8.50;;
8564;SDS011;4320;51.498;6.556;2023-04-09T09:38:33;9.23;;;7.65;;
8564;SDS011;4320;51.498;6.556;2023-04-09T09:41:00;11.40;;;8.07;;
8564;SDS011;4320;51.498;6.556;2023-04-09T09:43:41;10.45;;;7.93;;
8564;SDS011;4320;51.498;6.556;2023-04-09T09:46:08;10.00;;;8.48;;
8564;SDS011;4320;51.498;6.556;2023-04-09T09:48:35;9.48;;;7.72;;
8564;SDS011;4320;51.498;6.556;2023-04-09T09:51:01;9.95;;;7.38;;
8564;SDS011;4320;51.498;6.556;2023-04-09T09:53:33;12.27;;;6.40;;
8564;SDS011;4320;51.498;6.556;2023-04-09T09:56:00;7.82;;;5.65;;
8564;SDS011;4320;51.498;6.556;2023-04-09T09:58:35;7.40;;;6.15;;
8564;SDS011;4320;51.498;6.556;2023-04-09T10:01:08;7.53;;;5.47;;
8564;SDS011;4320;51.498;6.556;2023-04-09T10:03:36;7.78;;;5.50;;
8564;SDS011;4320;51.498;6.556;2023-04-09T10:06:04;8.57;;;5.20;;
8564;SDS011;4320;51.498;6.556;2023-04-09T10:08:32;6.93;;;5.55;;
8564;SDS011;4320;51.498;6.556;2023-04-09T10:11:01;6.13;;;5.20;;
8564;SDS011;4320;51.498;6.556;2023-04-09T10:13:29;7.82;;;6.13;;
8564;SDS011;4320;51.498;6.556;2023-04-09T10:15:58;7.05;;;5.40;;
8564;SDS011;4320;51.498;6.556;2023-04-09T10:18:24;5.93;;;4.78;;
8564;SDS011;4320;51.498;6.556;2023-04-09T10:20:55;6.85;;;5.60;;
8564;SDS011;4320;51.498;6.556;2023-04-09T10:26:03;7.22;;;5.60;;
8564;SDS011;4320;51.498;6.556;2023-04-09T10:28:29;8.15;;;5.97;;
8564;SDS011;4320;51.498;6.556;2023-04-09T10:30:56;6.78;;;5.53;;
8564;SDS011;4320;51.498;6.556;2023-04-09T10:33:24;6.15;;;5.15;;
8564;SDS011;4320;51.498;6.556;2023-04-09T10:35:52;6.18;;;5.35;;
8564;SDS011;4320;51.498;6.556;2023-04-09T10:38:35;6.40;;;4.93;;
8564;SDS011;4320;51.498;6.556;2023-04-09T10:43:52;8.35;;;6.82;;
8564;SDS011;4320;51.498;6.556;2023-04-09T10:46:34;6.07;;;5.43;;
8564;SDS011;4320;51.498;6.556;2023-04-09T10:49:07;7.30;;;5.65;;
8564;SDS011;4320;51.498;6.556;2023-04-09T10:51:52;6.20;;;5.45;;
8564;SDS011;4320;51.498;6.556;2023-04-09T10:59:38;7.55;;;6.03;;
8564;SDS011;4320;51.498;6.556;2023-04-09T11:02:08;7.45;;;5.70;;
8564;SDS011;4320;51.498;6.556;2023-04-09T11:04:46;7.65;;;6.15;;
8564;SDS011;4320;51.498;6.556;2023-04-09T11:07:36;7.28;;;5.55;;
8564;SDS011;4320;51.498;6.556;2023-04-09T11:10:07;6.55;;;5.40;;
8564;SDS011;4320;51.498;6.556;2023-04-09T11:12:33;5.88;;;5.25;;
8564;SDS011;4320;51.498;6.556;2023-04-09T11:14:59;6.28;;;5.25;;
8564;SDS011;4320;51.498;6.556;2023-04-09T11:17:25;9.45;;;5.65;;
8564;SDS011;4320;51.498;6.556;2023-04-09T11:19:51;6.60;;;5.45;;
8564;SDS011;4320;51.498;6.556;2023-04-09T11:22:17;7.25;;;5.60;;
8564;SDS011;4320;51.498;6.556;2023-04-09T11:24:43;7.55;;;5.93;;
8564;SDS011;4320;51.498;6.556;2023-04-09T11:27:10;6.38;;;5.45;;
8564;SDS011;4320;51.498;6.556;2023-04-09T11:29:39;8.38;;;5.88;;
8564;SDS011;4320;51.498;6.556;2023-04-09T11:32:06;7.35;;;5.85;;
8564;SDS011;4320;51.498;6.556;2023-04-09T11:34:32;8.05;;;5.72;;
8564;SDS011;4320;51.498;6.556;2023-04-09T11:36:57;6.18;;;5.45;;
8564;SDS011;4320;51.498;6.556;2023-04-09T11:39:26;6.85;;;5.30;;
8564;SDS011;4320;51.498;6.556;2023-04-09T11:41:53;7.00;;;5.60;;
8564;SDS011;4320;51.498;6.556;2023-04-09T11:44:21;6.28;;;5.00;;
8564;SDS011;4320;51.498;6.556;2023-04-09T11:46:47;6.40;;;5.07;;
8564;SDS011;4320;51.498;6.556;2023-04-09T11:49:14;5.45;;;4.93;;
8564;SDS011;4320;51.498;6.556;2023-04-09T11:51:40;6.90;;;5.60;;
8564;SDS011;4320;51.498;6.556;2023-04-09T11:54:06;7.28;;;5.45;;
8564;SDS011;4320;51.498;6.556;2023-04-09T11:56:34;6.88;;;5.20;;
8564;SDS011;4320;51.498;6.556;2023-04-09T11:59:00;5.70;;;4.88;;
8564;SDS011;4320;51.498;6.556;2023-04-09T12:01:29;7.57;;;5.90;;
8564;SDS011;4320;51.498;6.556;2023-04-09T12:03:57;7.85;;;5.72;;
8564;SDS011;4320;51.498;6.556;2023-04-09T12:06:23;7.07;;;5.45;;
8564;SDS011;4320;51.498;6.556;2023-04-09T12:08:56;6.03;;;4.72;;
8564;SDS011;4320;51.498;6.556;2023-04-09T12:11:29;6.35;;;5.45;;
8564;SDS011;4320;51.498;6.556;2023-04-09T12:14:02;6.90;;;5.90;;
8564;SDS011;4320;51.498;6.556;2023-04-09T12:16:29;7.20;;;5.63;;
8564;SDS011;4320;51.498;6.556;2023-04-09T12:18:59;7.18;;;5.72;;
8564;SDS011;4320;51.498;6.556;2023-04-09T12:21:50;6.30;;;5.68;;
8564;SDS011;4320;51.498;6.556;2023-04-09T12:24:22;6.75;;;5.78;;
8564;SDS011;4320;51.498;6.556;2023-04-09T12:26:49;8.55;;;5.65;;
8564;SDS011;4320;51.498;6.556;2023-04-09T12:29:18;8.15;;;5.47;;
8564;SDS011;4320;51.498;6.556;2023-04-09T12:31:45;8.40;;;6.43;;
8564;SDS011;4320;51.498;6.556;2023-04-09T12:34:11;7.10;;;5.70;;
8564;SDS011;4320;51.498;6.556;2023-04-09T12:36:37;7.22;;;6.10;;
8564;SDS011;4320;51.498;6.556;2023-04-09T12:39:05;8.25;;;6.55;;
8564;SDS011;4320;51.498;6.556;2023-04-09T12:41:31;8.90;;;6.30;;
8564;SDS011;4320;51.498;6.556;2023-04-09T12:43:57;8.15;;;6.22;;
8564;SDS011;4320;51.498;6.556;2023-04-09T12:46:22;6.97;;;5.70;;
8564;SDS011;4320;51.498;6.556;2023-04-09T12:48:48;7.68;;;6.38;;
8564;SDS011;4320;51.498;6.556;2023-04-09T12:51:13;7.03;;;5.78;;
8564;SDS011;4320;51.498;6.556;2023-04-09T12:53:39;7.28;;;5.72;;
8564;SDS011;4320;51.498;6.556;2023-04-09T12:56:05;7.47;;;5.70;;
8564;SDS011;4320;51.498;6.556;2023-04-09T12:58:31;6.32;;;5.18;;
8564;SDS011;4320;51.498;6.556;2023-04-09T13:00:57;7.40;;;5.43;;
8564;SDS011;4320;51.498;6.556;2023-04-09T13:03:23;9.55;;;6.38;;
8564;SDS011;4320;51.498;6.556;2023-04-09T13:05:49;7.13;;;6.20;;
8564;SDS011;4320;51.498;6.556;2023-04-09T13:08:15;8.18;;;6.20;;
8564;SDS011;4320;51.498;6.556;2023-04-09T13:10:41;9.73;;;6.07;;
8564;SDS011;4320;51.498;6.556;2023-04-09T13:13:07;7.82;;;5.82;;
8564;SDS011;4320;51.498;6.556;2023-04-09T13:15:36;7.43;;;5.43;;
8564;SDS011;4320;51.498;6.556;2023-04-09T13:18:02;6.90;;;5.10;;
8564;SDS011;4320;51.498;6.556;2023-04-09T13:20:27;7.05;;;5.00;;
8564;SDS011;4320;51.498;6.556;2023-04-09T13:22:54;7.32;;;4.93;;
8564;SDS011;4320;51.498;6.556;2023-04-09T13:25:20;7.00;;;5.10;;
8564;SDS011;4320;51.498;6.556;2023-04-09T13:27:46;6.82;;;5.40;;
8564;SDS011;4320;51.498;6.556;2023-04-09T13:30:11;6.40;;;5.40;;
8564;SDS011;4320;51.498;6.556;2023-04-09T13:32:37;6.50;;;5.35;;
8564;SDS011;4320;51.498;6.556;2023-04-09T13:35:03;7.88;;;5.28;;
8564;SDS011;4320;51.498;6.556;2023-04-09T13:37:30;9.38;;;5.18;;
8564;SDS011;4320;51.498;6.556;2023-04-09T13:39:55;6.60;;;5.18;;
8564;SDS011;4320;51.498;6.556;2023-04-09T13:42:21;6.10;;;5.50;;
8564;SDS011;4320;51.498;6.556;2023-04-09T13:44:47;7.47;;;5.38;;
8564;SDS011;4320;51.498;6.556;2023-04-09T13:47:13;6.75;;;5.10;;
8564;SDS011;4320;51.498;6.556;2023-04-09T13:49:40;6.28;;;4.93;;
8564;SDS011;4320;51.498;6.556;2023-04-09T13:52:06;6.93;;;5.38;;
8564;SDS011;4320;51.498;6.556;2023-04-09T13:54:33;6.32;;;5.57;;
8564;SDS011;4320;51.498;6.556;2023-04-09T13:56:59;6.60;;;5.32;;
8564;SDS011;4320;51.498;6.556;2023-04-09T13:59:25;6.75;;;5.60;;
8564;SDS011;4320;51.498;6.556;2023-04-09T14:01:50;8.77;;;5.70;;
8564;SDS011;4320;51.498;6.556;2023-04-09T14:04:16;7.25;;;5.57;;
8564;SDS011;4320;51.498;6.556;2023-04-09T14:06:43;8.23;;;5.75;;
8564;SDS011;4320;51.498;6.556;2023-04-09T14:09:09;8.20;;;6.35;;
8564;SDS011;4320;51.498;6.556;2023-04-09T14:11:34;6.40;;;5.05;;
8564;SDS011;4320;51.498;6.556;2023-04-09T14:14:00;5.72;;;4.50;;
8564;SDS011;4320;51.498;6.556;2023-04-09T14:16:26;7.45;;;5.55;;
8564;SDS011;4320;51.498;6.556;2023-04-09T14:18:52;6.50;;;5.15;;
8564;SDS011;4320;51.498;6.556;2023-04-09T14:21:18;5.57;;;4.72;;
8564;SDS011;4320;51.498;6.556;2023-04-09T14:23:43;7.63;;;5.65;;
8564;SDS011;4320;51.498;6.556;2023-04-09T14:26:09;6.57;;;5.43;;
8564;SDS011;4320;51.498;6.556;2023-04-09T14:28:35;7.07;;;5.43;;
8564;SDS011;4320;51.498;6.556;2023-04-09T14:31:01;7.00;;;5.15;;
8564;SDS011;4320;51.498;6.556;2023-04-09T14:33:27;9.85;;;7.18;;
8564;SDS011;4320;51.498;6.556;2023-04-09T14:35:53;6.22;;;5.53;;
8564;SDS011;4320;51.498;6.556;2023-04-09T14:38:18;6.00;;;5.13;;
8564;SDS011;4320;51.498;6.556;2023-04-09T14:40:44;7.18;;;5.47;;
8564;SDS011;4320;51.498;6.556;2023-04-09T14:43:10;6.40;;;5.43;;
8564;SDS011;4320;51.498;6.556;2023-04-09T14:45:35;6.13;;;4.90;;
8564;SDS011;4320;51.498;6.556;2023-04-09T14:48:01;9.27;;;6.95;;
8564;SDS011;4320;51.498;6.556;2023-04-09T14:50:29;6.18;;;5.45;;
8564;SDS011;4320;51.498;6.556;2023-04-09T14:52:56;7.38;;;5.70;;
8564;SDS011;4320;51.498;6.556;2023-04-09T14:55:21;6.93;;;5.38;;
8564;SDS011;4320;51.498;6.556;2023-04-09T14:57:48;7.25;;;5.13;;
8564;SDS011;4320;51.498;6.556;2023-04-09T15:00:13;6.90;;;4.78;;
8564;SDS011;4320;51.498;6.556;2023-04-09T15:02:39;6.18;;;5.40;;
8564;SDS011;4320;51.498;6.556;2023-04-09T15:05:05;5.85;;;4.78;;
8564;SDS011;4320;51.498;6.556;2023-04-09T15:07:31;5.53;;;4.50;;
8564;SDS011;4320;51.498;6.556;2023-04-09T15:09:57;10.73;;;8.65;;
8564;SDS011;4320;51.498;6.556;2023-04-09T15:12:24;7.55;;;5.80;;
8564;SDS011;4320;51.498;6.556;2023-04-09T15:14:51;7.00;;;5.57;;
8564;SDS011;4320;51.498;6.556;2023-04-09T15:17:17;9.63;;;7.03;;